sensor_id;sensor_type;location;lat;lon;timestamp;pressure;altitude;pressure_sealevel;temperature;humidity
54308;BME280;40208;39.778;2.710;2024-01-30T00:00:50;102872.00;;;9.10;100.00
54308;BME280;40208;39.778;2.710;2024-01-30T00:03:35;102967.09;;;9.62;100.00
54308;BME280;40208;39.778;2.710;2024-01-30T00:06:20;102938.00;;;9.54;100.00
54308;BME280;40208;39.778;2.710;2024-01-30T00:09:05;102732.91;;;8.32;100.00
54308;BME280;40208;39.778;2.710;2024-01-30T00:11:50;102785.72;;;8.69;100.00
54308;BME280;40208;39.778;2.710;2024-01-30T00:14:35;102972.34;;;9.71;100.00
54308;BME280;40208;39.778;2.710;2024-01-30T00:17:20;102962.69;;;9.66;100.00
54308;BME280;40208;39.778;2.710;2024-01-30T00:20:05;102920.63;;;9.00;100.00
54308;BME280;40208;39.778;2.710;2024-01-30T00:22:51;102658.31;;;7.26;100.00
54308;BME280;40208;39.778;2.710;2024-01-30T00:25:36;102874.91;;;8.30;100.00
54308;BME280;40208;39.778;2.710;2024-01-30T00:28:21;103023.03;;;8.87;100.00
54308;BME280;40208;39.778;2.710;2024-01-30T00:31:06;102867.91;;;8.04;100.00
54308;BME280;40208;39.778;2.710;2024-01-30T00:33:51;102874.06;;;8.40;100.00
54308;BME280;40208;39.778;2.710;2024-01-30T00:36:35;102802.63;;;8.16;100.00
54308;BME280;40208;39.778;2.710;2024-01-30T00:39:21;102885.34;;;8.88;100.00
54308;BME280;40208;39.778;2.710;2024-01-30T00:42:06;103015.72;;;9.66;100.00
54308;BME280;40208;39.778;2.710;2024-01-30T00:44:50;102763.81;;;8.21;100.00
54308;BME280;40208;39.778;2.710;2024-01-30T00:47:35;102844.84;;;8.69;100.00
54308;BME280;40208;39.778;2.710;2024-01-30T00:50:20;102979.53;;;9.51;100.00
54308;BME280;40208;39.778;2.710;2024-01-30T00:53:05;102912.53;;;9.23;100.00
54308;BME280;40208;39.778;2.710;2024-01-30T00:55:50;102712.75;;;8.06;100.00
54308;BME280;40208;39.778;2.710;2024-01-30T00:58:35;103008.56;;;9.74;100.00
54308;BME280;40208;39.778;2.710;2024-01-30T01:01:19;102746.16;;;8.29;100.00
54308;BME280;40208;39.778;2.710;2024-01-30T01:04:04;102746.16;;;8.32;100.00
54308;BME280;40208;39.778;2.710;2024-01-30T01:06:49;102816.59;;;8.65;100.00
54308;BME280;40208;39.778;2.710;2024-01-30T01:09:34;102929.38;;;9.14;100.00
54308;BME280;40208;39.778;2.710;2024-01-30T01:12:19;102824.63;;;8.50;100.00
54308;BME280;40208;39.778;2.710;2024-01-30T01:15:04;102856.41;;;8.18;100.00
54308;BME280;40208;39.778;2.710;2024-01-30T01:17:49;102852.03;;;7.88;100.00
54308;BME280;40208;39.778;2.710;2024-01-30T01:20:34;102725.22;;;7.15;100.00
54308;BME280;40208;39.778;2.710;2024-01-30T01:23:19;102865.28;;;8.04;100.00
54308;BME280;40208;39.778;2.710;2024-01-30T01:26:04;102883.78;;;8.03;100.00
54308;BME280;40208;39.778;2.710;2024-01-30T01:28:50;102815.91;;;7.23;100.00
54308;BME280;40208;39.778;2.710;2024-01-30T01:31:36;102819.47;;;7.62;100.00
54308;BME280;40208;39.778;2.710;2024-01-30T01:34:24;102856.41;;;7.19;100.00
54308;BME280;40208;39.778;2.710;2024-01-30T01:37:10;102830.91;;;7.46;100.00
54308;BME280;40208;39.778;2.710;2024-01-30T01:39:54;102861.72;;;8.08;100.00
54308;BME280;40208;39.778;2.710;2024-01-30T01:42:39;102776.31;;;7.43;100.00
54308;BME280;40208;39.778;2.710;2024-01-30T01:45:24;102898.75;;;8.08;100.00
54308;BME280;40208;39.778;2.710;2024-01-30T01:48:09;103013.31;;;9.03;100.00
54308;BME280;40208;39.778;2.710;2024-01-30T01:50:54;102796.53;;;7.84;100.00
54308;BME280;40208;39.778;2.710;2024-01-30T01:53:38;102815.00;;;8.12;100.00
54308;BME280;40208;39.778;2.710;2024-01-30T01:56:23;102766.56;;;7.84;100.00
54308;BME280;40208;39.778;2.710;2024-01-30T01:59:09;102911.88;;;8.70;100.00
54308;BME280;40208;39.778;2.710;2024-01-30T02:01:55;102957.72;;;8.90;100.00
54308;BME280;40208;39.778;2.710;2024-01-30T02:04:40;102784.16;;;8.02;100.00
54308;BME280;40208;39.778;2.710;2024-01-30T02:07:25;102773.56;;;8.08;100.00
54308;BME280;40208;39.778;2.710;2024-01-30T02:10:09;102903.03;;;8.82;100.00
54308;BME280;40208;39.778;2.710;2024-01-30T02:12:54;102837.88;;;8.44;100.00
54308;BME280;40208;39.778;2.710;2024-01-30T02:15:39;102747.22;;;7.56;100.00
54308;BME280;40208;39.778;2.710;2024-01-30T02:18:24;102762.22;;;7.29;100.00
54308;BME280;40208;39.778;2.710;2024-01-30T02:21:09;102934.00;;;8.11;100.00
54308;BME280;40208;39.778;2.710;2024-01-30T02:23:54;102781.56;;;7.04;100.00
54308;BME280;40208;39.778;2.710;2024-01-30T02:26:40;102778.91;;;7.04;100.00
54308;BME280;40208;39.778;2.710;2024-01-30T02:29:25;102842.28;;;7.00;100.00
54308;BME280;40208;39.778;2.710;2024-01-30T02:32:09;102718.09;;;6.54;100.00
54308;BME280;40208;39.778;2.710;2024-01-30T02:34:54;102816.81;;;7.55;100.00
54308;BME280;40208;39.778;2.710;2024-01-30T02:37:39;102974.53;;;8.68;100.00
54308;BME280;40208;39.778;2.710;2024-01-30T02:40:24;102756.91;;;7.14;100.00
54308;BME280;40208;39.778;2.710;2024-01-30T02:43:09;102756.06;;;7.36;100.00
54308;BME280;40208;39.778;2.710;2024-01-30T02:45:53;102958.66;;;8.74;100.00
54308;BME280;40208;39.778;2.710;2024-01-30T02:48:38;102759.56;;;7.63;100.00
54308;BME280;40208;39.778;2.710;2024-01-30T02:51:23;102861.69;;;8.21;100.00
54308;BME280;40208;39.778;2.710;2024-01-30T02:54:08;102674.19;;;6.76;100.00
54308;BME280;40208;39.778;2.710;2024-01-30T02:56:53;102668.88;;;6.58;100.00
54308;BME280;40208;39.778;2.710;2024-01-30T02:59:38;102886.41;;;7.80;100.00
54308;BME280;40208;39.778;2.710;2024-01-30T03:02:23;102763.09;;;7.39;100.00
54308;BME280;40208;39.778;2.710;2024-01-30T03:05:08;102874.06;;;7.54;100.00
54308;BME280;40208;39.778;2.710;2024-01-30T03:07:53;102616.91;;;6.08;100.00
54308;BME280;40208;39.778;2.710;2024-01-30T03:10:37;102915.47;;;8.14;100.00
54308;BME280;40208;39.778;2.710;2024-01-30T03:13:22;102870.53;;;8.12;100.00
54308;BME280;40208;39.778;2.710;2024-01-30T03:16:09;102805.38;;;7.43;100.00
54308;BME280;40208;39.778;2.710;2024-01-30T03:18:54;102805.34;;;7.73;100.00
54308;BME280;40208;39.778;2.710;2024-01-30T03:21:39;102833.53;;;7.95;100.00
54308;BME280;40208;39.778;2.710;2024-01-30T03:24:24;102681.22;;;7.25;100.00
54308;BME280;40208;39.778;2.710;2024-01-30T03:27:09;102812.38;;;7.94;100.00
54308;BME280;40208;39.778;2.710;2024-01-30T03:29:54;102732.28;;;7.50;100.00
54308;BME280;40208;39.778;2.710;2024-01-30T03:32:38;102846.75;;;7.83;100.00
54308;BME280;40208;39.778;2.710;2024-01-30T03:35:23;102637.22;;;6.67;100.00
54308;BME280;40208;39.778;2.710;2024-01-30T03:38:08;102757.78;;;6.93;100.00
54308;BME280;40208;39.778;2.710;2024-01-30T03:40:53;102756.00;;;6.83;100.00
54308;BME280;40208;39.778;2.710;2024-01-30T03:43:38;102934.00;;;7.74;100.00
54308;BME280;40208;39.778;2.710;2024-01-30T03:46:23;102865.25;;;7.46;100.00
54308;BME280;40208;39.778;2.710;2024-01-30T03:49:09;102821.22;;;7.51;100.00
54308;BME280;40208;39.778;2.710;2024-01-30T03:51:54;102884.63;;;8.16;100.00
54308;BME280;40208;39.778;2.710;2024-01-30T03:54:39;102771.88;;;7.38;100.00
54308;BME280;40208;39.778;2.710;2024-01-30T03:57:24;102928.72;;;8.47;100.00
54308;BME280;40208;39.778;2.710;2024-01-30T04:00:09;102734.91;;;7.39;100.00
54308;BME280;40208;39.778;2.710;2024-01-30T04:02:54;102774.53;;;7.61;100.00
54308;BME280;40208;39.778;2.710;2024-01-30T04:05:39;102872.25;;;8.21;100.00
54308;BME280;40208;39.778;2.710;2024-01-30T04:08:24;102799.19;;;7.81;100.00
54308;BME280;40208;39.778;2.710;2024-01-30T04:11:09;102612.59;;;6.48;100.00
54308;BME280;40208;39.778;2.710;2024-01-30T04:13:54;102719.00;;;6.69;100.00
54308;BME280;40208;39.778;2.710;2024-01-30T04:16:38;102674.13;;;6.44;100.00
54308;BME280;40208;39.778;2.710;2024-01-30T04:19:23;102957.78;;;7.97;100.00
54308;BME280;40208;39.778;2.710;2024-01-30T04:22:08;102829.13;;;7.34;100.00
54308;BME280;40208;39.778;2.710;2024-01-30T04:24:53;102846.75;;;7.26;100.00
54308;BME280;40208;39.778;2.710;2024-01-30T04:27:38;102928.63;;;7.37;100.00
54308;BME280;40208;39.778;2.710;2024-01-30T04:30:23;102595.63;;;5.74;100.00
54308;BME280;40208;39.778;2.710;2024-01-30T04:33:08;102854.63;;;7.31;100.00
54308;BME280;40208;39.778;2.710;2024-01-30T04:35:52;102530.56;;;5.50;100.00
54308;BME280;40208;39.778;2.710;2024-01-30T04:38:38;102662.69;;;6.45;100.00
54308;BME280;40208;39.778;2.710;2024-01-30T04:41:23;102784.22;;;7.22;100.00
54308;BME280;40208;39.778;2.710;2024-01-30T04:44:08;102950.75;;;8.16;100.00
54308;BME280;40208;39.778;2.710;2024-01-30T04:46:53;102850.28;;;7.77;100.00
54308;BME280;40208;39.778;2.710;2024-01-30T04:49:40;102802.75;;;7.45;100.00
54308;BME280;40208;39.778;2.710;2024-01-30T04:52:25;102755.16;;;7.10;100.00
54308;BME280;40208;39.778;2.710;2024-01-30T04:55:11;102960.47;;;8.35;100.00
54308;BME280;40208;39.778;2.710;2024-01-30T04:57:55;102804.47;;;7.58;100.00
54308;BME280;40208;39.778;2.710;2024-01-30T05:00:40;102925.19;;;8.08;100.00
54308;BME280;40208;39.778;2.710;2024-01-30T05:03:25;102828.25;;;7.57;100.00
54308;BME280;40208;39.778;2.710;2024-01-30T05:06:10;102736.59;;;6.71;100.00
54308;BME280;40208;39.778;2.710;2024-01-30T05:08:55;102868.66;;;6.96;100.00
54308;BME280;40208;39.778;2.710;2024-01-30T05:11:40;102961.25;;;7.53;100.00
54308;BME280;40208;39.778;2.710;2024-01-30T05:14:25;102868.66;;;6.99;100.00
54308;BME280;40208;39.778;2.710;2024-01-30T05:17:10;102894.34;;;7.52;100.00
54308;BME280;40208;39.778;2.710;2024-01-30T05:19:57;102899.47;;;6.95;100.00
54308;BME280;40208;39.778;2.710;2024-01-30T05:22:42;102812.97;;;6.31;100.00
54308;BME280;40208;39.778;2.710;2024-01-30T05:25:29;102694.69;;;5.41;100.00
54308;BME280;40208;39.778;2.710;2024-01-30T05:28:14;102826.13;;;6.28;100.00
54308;BME280;40208;39.778;2.710;2024-01-30T05:31:00;102901.16;;;6.83;100.00
54308;BME280;40208;39.778;2.710;2024-01-30T05:33:45;102751.19;;;5.86;100.00
54308;BME280;40208;39.778;2.710;2024-01-30T05:36:30;102847.44;;;6.70;100.00
54308;BME280;40208;39.778;2.710;2024-01-30T05:39:15;102897.75;;;7.10;100.00
54308;BME280;40208;39.778;2.710;2024-01-30T05:41:59;102794.59;;;6.53;100.00
54308;BME280;40208;39.778;2.710;2024-01-30T05:44:44;102804.22;;;6.39;100.00
54308;BME280;40208;39.778;2.710;2024-01-30T05:47:29;102991.28;;;7.85;100.00
54308;BME280;40208;39.778;2.710;2024-01-30T05:50:14;102911.03;;;7.42;100.00
54308;BME280;40208;39.778;2.710;2024-01-30T05:52:59;102832.59;;;7.09;100.00
54308;BME280;40208;39.778;2.710;2024-01-30T05:55:44;102999.22;;;7.93;100.00
54308;BME280;40208;39.778;2.710;2024-01-30T05:58:29;102732.16;;;6.46;100.00
54308;BME280;40208;39.778;2.710;2024-01-30T06:01:13;102946.34;;;7.84;100.00
54308;BME280;40208;39.778;2.710;2024-01-30T06:03:58;102472.41;;;4.98;100.00
54308;BME280;40208;39.778;2.710;2024-01-30T06:06:43;102832.59;;;7.12;100.00
54308;BME280;40208;39.778;2.710;2024-01-30T06:09:28;102968.38;;;7.97;100.00
54308;BME280;40208;39.778;2.710;2024-01-30T06:12:13;102859.94;;;7.34;100.00
54308;BME280;40208;39.778;2.710;2024-01-30T06:14:58;102887.25;;;7.34;100.00
54308;BME280;40208;39.778;2.710;2024-01-30T06:17:42;102697.44;;;5.64;100.00
54308;BME280;40208;39.778;2.710;2024-01-30T06:20:27;102960.22;;;7.08;100.00
54308;BME280;40208;39.778;2.710;2024-01-30T06:23:12;102981.41;;;7.17;100.00
54308;BME280;40208;39.778;2.710;2024-01-30T06:25:58;102934.41;;;6.54;100.00
54308;BME280;40208;39.778;2.710;2024-01-30T06:28:43;102905.47;;;6.65;100.00
54308;BME280;40208;39.778;2.710;2024-01-30T06:31:29;102748.72;;;6.14;100.00
54308;BME280;40208;39.778;2.710;2024-01-30T06:34:14;102829.81;;;6.61;100.00
54308;BME280;40208;39.778;2.710;2024-01-30T06:36:58;103033.59;;;7.93;100.00
54308;BME280;40208;39.778;2.710;2024-01-30T06:39:43;102873.97;;;7.11;100.00
54308;BME280;40208;39.778;2.710;2024-01-30T06:42:28;103019.47;;;7.90;100.00
54308;BME280;40208;39.778;2.710;2024-01-30T06:45:13;103003.59;;;7.85;100.00
54308;BME280;40208;39.778;2.710;2024-01-30T06:47:58;102897.56;;;6.70;100.00
54308;BME280;40208;39.778;2.710;2024-01-30T06:50:43;102662.78;;;5.03;100.00
54308;BME280;40208;39.778;2.710;2024-01-30T06:53:28;103012.16;;;7.12;100.00
54308;BME280;40208;39.778;2.710;2024-01-30T06:56:12;103019.19;;;7.11;100.00
54308;BME280;40208;39.778;2.710;2024-01-30T06:58:57;102894.00;;;6.60;100.00
54308;BME280;40208;39.778;2.710;2024-01-30T07:01:43;103012.28;;;7.33;100.00
54308;BME280;40208;39.778;2.710;2024-01-30T07:04:28;102594.13;;;4.69;100.00
54308;BME280;40208;39.778;2.710;2024-01-30T07:07:13;102907.41;;;7.03;100.00
54308;BME280;40208;39.778;2.710;2024-01-30T07:09:59;102910.81;;;6.80;100.00
54308;BME280;40208;39.778;2.710;2024-01-30T07:12:44;102891.38;;;6.66;100.00
54308;BME280;40208;39.778;2.710;2024-01-30T07:15:29;102963.81;;;7.19;100.00
54308;BME280;40208;39.778;2.710;2024-01-30T07:18:14;103065.19;;;7.52;100.00
54308;BME280;40208;39.778;2.710;2024-01-30T07:20:59;102879.94;;;6.64;100.00
54308;BME280;40208;39.778;2.710;2024-01-30T07:23:44;102942.50;;;6.85;100.00
54308;BME280;40208;39.778;2.710;2024-01-30T07:26:29;103029.63;;;6.87;100.00
54308;BME280;40208;39.778;2.710;2024-01-30T07:29:14;102988.13;;;6.63;100.00
54308;BME280;40208;39.778;2.710;2024-01-30T07:31:59;102809.13;;;5.82;100.00
54308;BME280;40208;39.778;2.710;2024-01-30T07:34:44;102923.69;;;6.28;100.00
54308;BME280;40208;39.778;2.710;2024-01-30T07:37:28;102859.19;;;5.85;100.00
54308;BME280;40208;39.778;2.710;2024-01-30T07:40:13;102853.00;;;5.81;100.00
54308;BME280;40208;39.778;2.710;2024-01-30T07:42:58;102903.28;;;6.04;100.00
54308;BME280;40208;39.778;2.710;2024-01-30T07:45:42;102898.25;;;6.32;100.00
54308;BME280;40208;39.778;2.710;2024-01-30T07:48:28;102903.66;;;6.59;100.00
54308;BME280;40208;39.778;2.710;2024-01-30T07:51:12;102981.38;;;7.12;100.00
54308;BME280;40208;39.778;2.710;2024-01-30T07:53:57;102997.25;;;7.25;100.00
54308;BME280;40208;39.778;2.710;2024-01-30T07:56:42;103004.38;;;7.39;100.00
54308;BME280;40208;39.778;2.710;2024-01-30T07:59:27;102969.09;;;7.30;100.00
54308;BME280;40208;39.778;2.710;2024-01-30T08:02:18;103087.28;;;7.72;100.00
54308;BME280;40208;39.778;2.710;2024-01-30T08:05:03;102847.91;;;5.98;100.00
54308;BME280;40208;39.778;2.710;2024-01-30T08:07:48;102869.91;;;6.02;100.00
54308;BME280;40208;39.778;2.710;2024-01-30T08:10:33;102754.28;;;5.31;100.00
54308;BME280;40208;39.778;2.710;2024-01-30T08:13:17;102713.75;;;5.14;100.00
54308;BME280;40208;39.778;2.710;2024-01-30T08:16:02;102930.91;;;6.57;100.00
54308;BME280;40208;39.778;2.710;2024-01-30T08:18:47;102899.09;;;6.31;100.00
54308;BME280;40208;39.778;2.710;2024-01-30T08:21:32;103069.59;;;7.54;100.00
54308;BME280;40208;39.778;2.710;2024-01-30T08:24:20;102953.03;;;6.77;100.00
54308;BME280;40208;39.778;2.710;2024-01-30T08:27:06;103105.00;;;7.93;100.00
54308;BME280;40208;39.778;2.710;2024-01-30T08:29:51;102641.72;;;5.00;100.00
54308;BME280;40208;39.778;2.710;2024-01-30T08:32:35;102796.31;;;6.42;100.00
54308;BME280;40208;39.778;2.710;2024-01-30T08:35:20;102610.53;;;5.69;100.00
54308;BME280;40208;39.778;2.710;2024-01-30T08:38:05;102882.00;;;7.53;100.00
54308;BME280;40208;39.778;2.710;2024-01-30T08:40:50;102962.22;;;8.13;100.00
54308;BME280;40208;39.778;2.710;2024-01-30T08:43:35;103001.03;;;8.65;100.00
54308;BME280;40208;39.778;2.710;2024-01-30T08:46:20;102927.81;;;8.30;100.00
54308;BME280;40208;39.778;2.710;2024-01-30T08:49:05;102898.75;;;8.42;100.00
54308;BME280;40208;39.778;2.710;2024-01-30T08:51:50;102942.69;;;9.00;100.00
54308;BME280;40208;39.778;2.710;2024-01-30T08:54:35;103068.59;;;9.89;100.00
54308;BME280;40208;39.778;2.710;2024-01-30T08:57:20;103003.38;;;9.57;100.00
54308;BME280;40208;39.778;2.710;2024-01-30T09:00:05;102940.78;;;9.31;100.00
54308;BME280;40208;39.778;2.710;2024-01-30T09:02:51;102916.22;;;9.02;100.00
54308;BME280;40208;39.778;2.710;2024-01-30T09:05:35;103124.09;;;10.35;100.00
54308;BME280;40208;39.778;2.710;2024-01-30T09:08:20;103102.91;;;10.21;100.00
54308;BME280;40208;39.778;2.710;2024-01-30T09:11:13;103052.69;;;9.89;100.00
54308;BME280;40208;39.778;2.710;2024-01-30T09:13:58;102941.66;;;9.35;100.00
54308;BME280;40208;39.778;2.710;2024-01-30T09:16:43;102981.25;;;9.64;100.00
54308;BME280;40208;39.778;2.710;2024-01-30T09:19:28;102989.19;;;9.64;100.00
54308;BME280;40208;39.778;2.710;2024-01-30T09:22:13;102905.50;;;9.20;100.00
54308;BME280;40208;39.778;2.710;2024-01-30T09:24:58;102863.22;;;9.02;100.00
54308;BME280;40208;39.778;2.710;2024-01-30T09:27:43;102960.03;;;9.64;100.00
54308;BME280;40208;39.778;2.710;2024-01-30T09:30:28;103008.56;;;9.80;100.00
54308;BME280;40208;39.778;2.710;2024-01-30T09:33:13;102946.72;;;9.70;100.00
54308;BME280;40208;39.778;2.710;2024-01-30T09:35:58;102981.81;;;10.08;100.00
54308;BME280;40208;39.778;2.710;2024-01-30T09:38:43;102980.81;;;10.26;100.00
54308;BME280;40208;39.778;2.710;2024-01-30T09:41:29;102877.00;;;9.58;100.00
54308;BME280;40208;39.778;2.710;2024-01-30T09:44:16;103107.66;;;10.96;100.00
54308;BME280;40208;39.778;2.710;2024-01-30T09:47:02;103101.28;;;11.13;100.00
54308;BME280;40208;39.778;2.710;2024-01-30T09:49:51;102957.75;;;10.35;100.00
54308;BME280;40208;39.778;2.710;2024-01-30T09:52:36;103050.13;;;10.92;100.00
54308;BME280;40208;39.778;2.710;2024-01-30T09:55:21;103043.13;;;10.83;100.00
54308;BME280;40208;39.778;2.710;2024-01-30T09:58:07;102853.03;;;9.73;100.00
54308;BME280;40208;39.778;2.710;2024-01-30T10:00:52;102965.47;;;10.60;100.00
54308;BME280;40208;39.778;2.710;2024-01-30T10:03:38;103034.94;;;11.05;100.00
54308;BME280;40208;39.778;2.710;2024-01-30T10:06:24;103168.78;;;11.83;100.00
54308;BME280;40208;39.778;2.710;2024-01-30T10:09:09;103138.75;;;11.72;100.00
54308;BME280;40208;39.778;2.710;2024-01-30T10:11:54;103118.38;;;11.71;100.00
54308;BME280;40208;39.778;2.710;2024-01-30T10:14:39;103119.19;;;11.74;100.00
54308;BME280;40208;39.778;2.710;2024-01-30T10:17:25;103107.63;;;11.78;100.00
54308;BME280;40208;39.778;2.710;2024-01-30T10:20:12;103052.25;;;11.41;100.00
54308;BME280;40208;39.778;2.710;2024-01-30T10:22:56;103076.81;;;11.62;100.00
54308;BME280;40208;39.778;2.710;2024-01-30T10:25:41;103060.78;;;11.68;100.00
54308;BME280;40208;39.778;2.710;2024-01-30T10:28:29;102998.09;;;11.47;100.00
54308;BME280;40208;39.778;2.710;2024-01-30T10:31:18;102973.47;;;11.33;100.00
54308;BME280;40208;39.778;2.710;2024-01-30T10:34:03;103016.44;;;11.67;100.00
54308;BME280;40208;39.778;2.710;2024-01-30T10:36:50;103126.31;;;12.42;100.00
54308;BME280;40208;39.778;2.710;2024-01-30T10:39:38;103116.59;;;12.38;100.00
54308;BME280;40208;39.778;2.710;2024-01-30T10:42:26;103133.34;;;12.46;100.00
54308;BME280;40208;39.778;2.710;2024-01-30T10:45:13;103032.94;;;11.95;100.00
54308;BME280;40208;39.778;2.710;2024-01-30T10:47:59;102987.84;;;11.81;100.00
54308;BME280;40208;39.778;2.710;2024-01-30T10:50:45;103096.16;;;12.38;100.00
54308;BME280;40208;39.778;2.710;2024-01-30T10:53:31;103052.59;;;12.44;100.00
54308;BME280;40208;39.778;2.710;2024-01-30T10:56:16;103088.56;;;12.69;100.00
54308;BME280;40208;39.778;2.710;2024-01-30T10:59:01;103021.84;;;12.24;100.00
54308;BME280;40208;39.778;2.710;2024-01-30T11:01:46;102964.38;;;12.09;100.00
54308;BME280;40208;39.778;2.710;2024-01-30T11:04:38;102974.72;;;12.29;100.00
54308;BME280;40208;39.778;2.710;2024-01-30T11:07:27;102936.75;;;12.17;100.00
54308;BME280;40208;39.778;2.710;2024-01-30T11:10:12;103064.06;;;12.97;100.00
54308;BME280;40208;39.778;2.710;2024-01-30T11:12:59;102888.28;;;11.98;100.00
54308;BME280;40208;39.778;2.710;2024-01-30T11:15:55;103086.56;;;13.32;100.00
54308;BME280;40208;39.778;2.710;2024-01-30T11:18:40;102894.00;;;12.27;100.00
54308;BME280;40208;39.778;2.710;2024-01-30T11:21:25;102938.69;;;12.58;100.00
54308;BME280;40208;39.778;2.710;2024-01-30T11:24:10;102965.38;;;12.55;100.00
54308;BME280;40208;39.778;2.710;2024-01-30T11:26:56;102919.38;;;12.47;100.00
54308;BME280;40208;39.778;2.710;2024-01-30T11:29:50;102956.91;;;12.80;100.00
54308;BME280;40208;39.778;2.710;2024-01-30T11:32:35;103104.44;;;13.70;100.00
54308;BME280;40208;39.778;2.710;2024-01-30T11:35:19;102625.50;;;10.66;100.00
54308;BME280;40208;39.778;2.710;2024-01-30T11:38:06;103060.41;;;13.49;100.00
54308;BME280;40208;39.778;2.710;2024-01-30T11:40:51;102757.56;;;11.65;100.00
54308;BME280;40208;39.778;2.710;2024-01-30T11:43:37;102875.19;;;12.37;100.00
54308;BME280;40208;39.778;2.710;2024-01-30T11:46:25;102997.06;;;13.15;100.00
54308;BME280;40208;39.778;2.710;2024-01-30T11:49:10;102967.78;;;13.14;100.00
54308;BME280;40208;39.778;2.710;2024-01-30T11:51:54;102810.59;;;12.25;100.00
54308;BME280;40208;39.778;2.710;2024-01-30T11:54:40;102889.56;;;12.71;100.00
54308;BME280;40208;39.778;2.710;2024-01-30T11:57:29;102960.59;;;13.18;100.00
54308;BME280;40208;39.778;2.710;2024-01-30T12:00:15;102791.03;;;12.28;100.00
54308;BME280;40208;39.778;2.710;2024-01-30T12:03:00;102882.16;;;12.87;100.00
54308;BME280;40208;39.778;2.710;2024-01-30T12:05:46;102879.66;;;12.80;100.00
54308;BME280;40208;39.778;2.710;2024-01-30T12:08:31;102825.97;;;12.56;100.00
54308;BME280;40208;39.778;2.710;2024-01-30T12:11:15;102569.06;;;11.03;100.00
54308;BME280;40208;39.778;2.710;2024-01-30T12:14:01;103040.97;;;13.85;100.00
54308;BME280;40208;39.778;2.710;2024-01-30T12:16:48;102908.34;;;13.07;100.00
54308;BME280;40208;39.778;2.710;2024-01-30T12:19:34;103027.69;;;13.82;100.00
54308;BME280;40208;39.778;2.710;2024-01-30T12:22:19;102789.81;;;12.44;100.00
54308;BME280;40208;39.778;2.710;2024-01-30T12:25:07;103064.59;;;14.03;100.00
54308;BME280;40208;39.778;2.710;2024-01-30T12:27:52;103076.25;;;13.97;100.00
54308;BME280;40208;39.778;2.710;2024-01-30T12:30:38;102906.16;;;13.26;100.00
54308;BME280;40208;39.778;2.710;2024-01-30T12:33:26;102945.84;;;13.43;100.00
54308;BME280;40208;39.778;2.710;2024-01-30T12:36:11;102980.63;;;13.77;100.00
54308;BME280;40208;39.778;2.710;2024-01-30T12:38:56;102947.59;;;13.44;100.00
54308;BME280;40208;39.778;2.710;2024-01-30T12:41:41;102796.50;;;12.62;100.00
54308;BME280;40208;39.778;2.710;2024-01-30T12:44:26;102936.53;;;13.61;100.00
54308;BME280;40208;39.778;2.710;2024-01-30T12:47:11;102826.94;;;12.94;100.00
54308;BME280;40208;39.778;2.710;2024-01-30T12:49:56;103035.47;;;14.30;100.00
54308;BME280;40208;39.778;2.710;2024-01-30T12:52:41;103035.66;;;14.22;100.00
54308;BME280;40208;39.778;2.710;2024-01-30T12:55:26;102954.06;;;13.73;100.00
54308;BME280;40208;39.778;2.710;2024-01-30T12:58:12;102845.84;;;13.22;100.00
54308;BME280;40208;39.778;2.710;2024-01-30T13:00:58;102876.81;;;13.29;100.00
54308;BME280;40208;39.778;2.710;2024-01-30T13:03:43;103011.63;;;14.20;100.00
54308;BME280;40208;39.778;2.710;2024-01-30T13:06:27;102871.22;;;13.40;100.00
54308;BME280;40208;39.778;2.710;2024-01-30T13:09:12;102953.94;;;13.79;100.00
54308;BME280;40208;39.778;2.710;2024-01-30T13:11:58;102893.97;;;13.56;100.00
54308;BME280;40208;39.778;2.710;2024-01-30T13:14:43;102931.66;;;13.78;100.00
54308;BME280;40208;39.778;2.710;2024-01-30T13:17:28;102743.28;;;12.61;100.00
54308;BME280;40208;39.778;2.710;2024-01-30T13:20:13;102968.78;;;13.91;100.00
54308;BME280;40208;39.778;2.710;2024-01-30T13:23:01;102859.13;;;13.24;100.00
54308;BME280;40208;39.778;2.710;2024-01-30T13:25:46;103027.56;;;14.25;100.00
54308;BME280;40208;39.778;2.710;2024-01-30T13:28:31;102875.41;;;13.11;100.00
54308;BME280;40208;39.778;2.710;2024-01-30T13:31:16;103046.25;;;14.25;100.00
54308;BME280;40208;39.778;2.710;2024-01-30T13:34:01;102701.63;;;12.18;100.00
54308;BME280;40208;39.778;2.710;2024-01-30T13:36:46;102706.88;;;12.19;100.00
54308;BME280;40208;39.778;2.710;2024-01-30T13:39:31;102952.22;;;13.75;100.00
54308;BME280;40208;39.778;2.710;2024-01-30T13:42:16;103080.13;;;14.23;100.00
54308;BME280;40208;39.778;2.710;2024-01-30T13:45:01;102562.84;;;11.51;100.00
54308;BME280;40208;39.778;2.710;2024-01-30T13:47:46;102874.16;;;13.29;100.00
54308;BME280;40208;39.778;2.710;2024-01-30T13:50:31;103040.16;;;14.20;100.00
54308;BME280;40208;39.778;2.710;2024-01-30T13:53:17;102677.47;;;12.27;100.00
54308;BME280;40208;39.778;2.710;2024-01-30T13:56:02;102580.63;;;11.49;100.00
54308;BME280;40208;39.778;2.710;2024-01-30T13:58:50;102531.28;;;11.34;100.00
54308;BME280;40208;39.778;2.710;2024-01-30T14:01:35;102513.88;;;11.17;100.00
54308;BME280;40208;39.778;2.710;2024-01-30T14:04:19;102524.56;;;11.16;100.00
54308;BME280;40208;39.778;2.710;2024-01-30T14:07:05;102789.31;;;12.67;100.00
54308;BME280;40208;39.778;2.710;2024-01-30T14:09:50;102676.84;;;12.14;100.00
54308;BME280;40208;39.778;2.710;2024-01-30T14:12:35;102499.38;;;10.89;100.00
54308;BME280;40208;39.778;2.710;2024-01-30T14:15:20;102743.16;;;12.25;100.00
54308;BME280;40208;39.778;2.710;2024-01-30T14:18:06;102421.38;;;10.46;100.00
54308;BME280;40208;39.778;2.710;2024-01-30T14:20:53;102722.72;;;12.27;100.00